sensor_id;sensor_type;location;lat;lon;timestamp;temperature;humidity
67893;DHT22;54688;52.376;16.744;2022-09-01T00:00:22;11.3;73.7
67893;DHT22;54688;52.376;16.744;2022-09-01T00:03:38;11.2;73.6
67893;DHT22;54688;52.376;16.744;2022-09-01T00:06:39;11.2;73.8
67893;DHT22;54688;52.376;16.744;2022-09-01T00:12:43;11.2;73.9
67893;DHT22;54688;52.376;16.744;2022-09-01T00:15:45;11.1;73.9
67893;DHT22;54688;52.376;16.744;2022-09-01T00:18:48;11.1;74.3
67893;DHT22;54688;52.376;16.744;2022-09-01T00:21:54;11;74.4
67893;DHT22;54688;52.376;16.744;2022-09-01T00:24:57;11;74.5
67893;DHT22;54688;52.376;16.744;2022-09-01T00:27:59;10.9;74.7
67893;DHT22;54688;52.376;16.744;2022-09-01T00:34:00;10.9;74.9
67893;DHT22;54688;52.376;16.744;2022-09-01T00:37:04;10.8;74.9
67893;DHT22;54688;52.376;16.744;2022-09-01T00:40:07;10.8;75
67893;DHT22;54688;52.376;16.744;2022-09-01T00:43:11;10.7;75.2
67893;DHT22;54688;52.376;16.744;2022-09-01T00:46:16;10.7;75.4
67893;DHT22;54688;52.376;16.744;2022-09-01T00:49:22;10.7;75.7
67893;DHT22;54688;52.376;16.744;2022-09-01T00:52:30;10.7;75.9
67893;DHT22;54688;52.376;16.744;2022-09-01T00:55:35;10.6;75.9
67893;DHT22;54688;52.376;16.744;2022-09-01T00:58:38;10.6;76
67893;DHT22;54688;52.376;16.744;2022-09-01T01:01:41;10.6;76
67893;DHT22;54688;52.376;16.744;2022-09-01T01:04:44;10.5;76
67893;DHT22;54688;52.376;16.744;2022-09-01T01:07:46;10.4;76.1
67893;DHT22;54688;52.376;16.744;2022-09-01T01:10:51;10.4;76.3
67893;DHT22;54688;52.376;16.744;2022-09-01T01:13:55;10.3;76.5
67893;DHT22;54688;52.376;16.744;2022-09-01T01:17:00;10.3;76.9
67893;DHT22;54688;52.376;16.744;2022-09-01T01:20:02;10.3;78.1
67893;DHT22;54688;52.376;16.744;2022-09-01T01:23:09;10.3;77.3
67893;DHT22;54688;52.376;16.744;2022-09-01T01:26:18;10.3;77.3
67893;DHT22;54688;52.376;16.744;2022-09-01T01:29:19;10.2;77.2
67893;DHT22;54688;52.376;16.744;2022-09-01T01:32:21;10.2;77.4
67893;DHT22;54688;52.376;16.744;2022-09-01T01:35:23;10.2;77.5
67893;DHT22;54688;52.376;16.744;2022-09-01T01:38:25;10.1;77.7
67893;DHT22;54688;52.376;16.744;2022-09-01T01:41:28;10.1;77.7
67893;DHT22;54688;52.376;16.744;2022-09-01T01:44:31;10;77.9
67893;DHT22;54688;52.376;16.744;2022-09-01T01:47:33;10.1;78.2
67893;DHT22;54688;52.376;16.744;2022-09-01T01:50:35;10.1;78.5
67893;DHT22;54688;52.376;16.744;2022-09-01T01:53:38;10;78.4
67893;DHT22;54688;52.376;16.744;2022-09-01T01:56:40;10;78.6
67893;DHT22;54688;52.376;16.744;2022-09-01T01:59:42;10;78.7
67893;DHT22;54688;52.376;16.744;2022-09-01T02:02:45;10;78.5
67893;DHT22;54688;52.376;16.744;2022-09-01T02:05:48;9.9;78.2
67893;DHT22;54688;52.376;16.744;2022-09-01T02:08:52;9.9;78.3
67893;DHT22;54688;52.376;16.744;2022-09-01T02:11:58;9.9;78.7
67893;DHT22;54688;52.376;16.744;2022-09-01T02:15:00;9.8;79.1
67893;DHT22;54688;52.376;16.744;2022-09-01T02:18:02;9.8;79.4
67893;DHT22;54688;52.376;16.744;2022-09-01T02:21:06;9.8;79.7
67893;DHT22;54688;52.376;16.744;2022-09-01T02:24:11;9.8;79.9
67893;DHT22;54688;52.376;16.744;2022-09-01T02:27:12;9.8;80.1
67893;DHT22;54688;52.376;16.744;2022-09-01T02:30:14;9.8;80.1
67893;DHT22;54688;52.376;16.744;2022-09-01T02:33:18;9.8;80
67893;DHT22;54688;52.376;16.744;2022-09-01T02:36:20;9.7;79.9
67893;DHT22;54688;52.376;16.744;2022-09-01T02:39:25;9.8;80.2
67893;DHT22;54688;52.376;16.744;2022-09-01T02:42:28;9.8;80.2
67893;DHT22;54688;52.376;16.744;2022-09-01T02:45:29;9.8;80.4
67893;DHT22;54688;52.376;16.744;2022-09-01T02:48:33;9.9;80.3
67893;DHT22;54688;52.376;16.744;2022-09-01T02:51:37;9.9;80.2
67893;DHT22;54688;52.376;16.744;2022-09-01T02:54:39;9.9;80
67893;DHT22;54688;52.376;16.744;2022-09-01T02:57:41;10;79.9
67893;DHT22;54688;52.376;16.744;2022-09-01T03:00:42;9.9;79.8
67893;DHT22;54688;52.376;16.744;2022-09-01T03:03:45;9.9;79.7
67893;DHT22;54688;52.376;16.744;2022-09-01T03:06:48;9.9;79.6
67893;DHT22;54688;52.376;16.744;2022-09-01T03:09:50;9.9;79.5
67893;DHT22;54688;52.376;16.744;2022-09-01T03:12:53;9.8;79.7
67893;DHT22;54688;52.376;16.744;2022-09-01T03:15:55;9.8;80
67893;DHT22;54688;52.376;16.744;2022-09-01T03:18:58;9.9;80.1
67893;DHT22;54688;52.376;16.744;2022-09-01T03:22:00;9.8;80.2
67893;DHT22;54688;52.376;16.744;2022-09-01T03:25:03;9.7;80.3
67893;DHT22;54688;52.376;16.744;2022-09-01T03:28:06;9.7;80.4
67893;DHT22;54688;52.376;16.744;2022-09-01T03:31:08;9.7;80.6
67893;DHT22;54688;52.376;16.744;2022-09-01T03:34:11;9.7;80.4
67893;DHT22;54688;52.376;16.744;2022-09-01T03:37:14;9.7;80.5
67893;DHT22;54688;52.376;16.744;2022-09-01T03:40:16;9.7;80.7
67893;DHT22;54688;52.376;16.744;2022-09-01T03:43:19;9.7;80.8
67893;DHT22;54688;52.376;16.744;2022-09-01T03:46:21;9.6;81.2
67893;DHT22;54688;52.376;16.744;2022-09-01T03:49:23;9.6;81.4
67893;DHT22;54688;52.376;16.744;2022-09-01T03:52:25;9.6;81.3
67893;DHT22;54688;52.376;16.744;2022-09-01T03:55:28;9.6;81.3
67893;DHT22;54688;52.376;16.744;2022-09-01T03:58:31;9.6;81.6
67893;DHT22;54688;52.376;16.744;2022-09-01T04:01:33;9.6;81.7
67893;DHT22;54688;52.376;16.744;2022-09-01T04:04:35;9.6;81.8
67893;DHT22;54688;52.376;16.744;2022-09-01T04:07:38;9.6;81.8
67893;DHT22;54688;52.376;16.744;2022-09-01T04:10:41;9.6;81.9
67893;DHT22;54688;52.376;16.744;2022-09-01T04:13:46;9.6;82
67893;DHT22;54688;52.376;16.744;2022-09-01T04:16:49;9.6;82.1
67893;DHT22;54688;52.376;16.744;2022-09-01T04:19:51;9.7;82.3
67893;DHT22;54688;52.376;16.744;2022-09-01T04:22:52;9.7;82.4
67893;DHT22;54688;52.376;16.744;2022-09-01T04:25:55;9.7;82.2
67893;DHT22;54688;52.376;16.744;2022-09-01T04:28:59;9.7;82.2
67893;DHT22;54688;52.376;16.744;2022-09-01T04:32:03;9.7;82.2
67893;DHT22;54688;52.376;16.744;2022-09-01T04:35:10;9.8;82.4
67893;DHT22;54688;52.376;16.744;2022-09-01T04:38:13;9.8;82.4
67893;DHT22;54688;52.376;16.744;2022-09-01T04:44:13;9.8;82.3
67893;DHT22;54688;52.376;16.744;2022-09-01T04:47:18;9.9;82.4
67893;DHT22;54688;52.376;16.744;2022-09-01T04:50:20;9.9;83.1
67893;DHT22;54688;52.376;16.744;2022-09-01T04:53:22;9.9;82
67893;DHT22;54688;52.376;16.744;2022-09-01T04:56:24;9.9;81.8
67893;DHT22;54688;52.376;16.744;2022-09-01T04:59:26;10;81.8
67893;DHT22;54688;52.376;16.744;2022-09-01T05:02:30;9.9;81.7
67893;DHT22;54688;52.376;16.744;2022-09-01T05:05:35;9.9;81.8
67893;DHT22;54688;52.376;16.744;2022-09-01T05:08:40;10;82
67893;DHT22;54688;52.376;16.744;2022-09-01T05:11:42;9.9;82.2
67893;DHT22;54688;52.376;16.744;2022-09-01T05:14:46;10;82.3
67893;DHT22;54688;52.376;16.744;2022-09-01T05:17:48;9.9;82.3
67893;DHT22;54688;52.376;16.744;2022-09-01T05:20:51;10;82.5
67893;DHT22;54688;52.376;16.744;2022-09-01T05:23:54;10;82.6
67893;DHT22;54688;52.376;16.744;2022-09-01T05:26:56;10.1;82.9
67893;DHT22;54688;52.376;16.744;2022-09-01T05:29:59;10.1;82.9
67893;DHT22;54688;52.376;16.744;2022-09-01T05:33:01;10.1;83
67893;DHT22;54688;52.376;16.744;2022-09-01T05:36:03;10.2;82.8
67893;DHT22;54688;52.376;16.744;2022-09-01T05:39:05;10.2;82.9
67893;DHT22;54688;52.376;16.744;2022-09-01T05:45:08;10.3;82.9
67893;DHT22;54688;52.376;16.744;2022-09-01T05:48:11;10.4;82.7
67893;DHT22;54688;52.376;16.744;2022-09-01T05:51:14;10.4;82.4
67893;DHT22;54688;52.376;16.744;2022-09-01T05:54:19;10.5;82.1
67893;DHT22;54688;52.376;16.744;2022-09-01T05:57:24;10.5;82.3
67893;DHT22;54688;52.376;16.744;2022-09-01T06:00:26;10.6;82.4
67893;DHT22;54688;52.376;16.744;2022-09-01T06:03:28;10.7;82.1
67893;DHT22;54688;52.376;16.744;2022-09-01T06:06:33;10.7;81.8
67893;DHT22;54688;52.376;16.744;2022-09-01T06:09:38;10.8;81.6
67893;DHT22;54688;52.376;16.744;2022-09-01T06:12:42;10.9;81.4
67893;DHT22;54688;52.376;16.744;2022-09-01T06:15:45;10.9;81.2
67893;DHT22;54688;52.376;16.744;2022-09-01T06:18:47;11;81.2
67893;DHT22;54688;52.376;16.744;2022-09-01T06:21:49;11.1;81.1
67893;DHT22;54688;52.376;16.744;2022-09-01T06:24:51;11.1;80.7
67893;DHT22;54688;52.376;16.744;2022-09-01T06:27:53;11.2;80.6
67893;DHT22;54688;52.376;16.744;2022-09-01T06:30:56;11.3;80.3
67893;DHT22;54688;52.376;16.744;2022-09-01T06:34:00;11.4;79.8
67893;DHT22;54688;52.376;16.744;2022-09-01T06:37:04;11.4;79.3
67893;DHT22;54688;52.376;16.744;2022-09-01T06:43:06;11.6;77.8
67893;DHT22;54688;52.376;16.744;2022-09-01T06:46:10;11.7;77.9
67893;DHT22;54688;52.376;16.744;2022-09-01T06:49:12;11.7;77.3
67893;DHT22;54688;52.376;16.744;2022-09-01T06:52:14;11.8;76
67893;DHT22;54688;52.376;16.744;2022-09-01T06:58:15;12;74.1
67893;DHT22;54688;52.376;16.744;2022-09-01T07:01:18;12.1;73.5
67893;DHT22;54688;52.376;16.744;2022-09-01T07:04:21;12.2;72.3
67893;DHT22;54688;52.376;16.744;2022-09-01T07:07:24;12.3;72
67893;DHT22;54688;52.376;16.744;2022-09-01T07:10:26;12.4;72.1
67893;DHT22;54688;52.376;16.744;2022-09-01T07:13:28;12.4;71.3
67893;DHT22;54688;52.376;16.744;2022-09-01T07:16:32;12.5;70.7
67893;DHT22;54688;52.376;16.744;2022-09-01T07:19:37;12.6;70.9
67893;DHT22;54688;52.376;16.744;2022-09-01T07:22:40;12.7;71
67893;DHT22;54688;52.376;16.744;2022-09-01T07:25:43;12.7;71
67893;DHT22;54688;52.376;16.744;2022-09-01T07:28:47;12.8;69.9
67893;DHT22;54688;52.376;16.744;2022-09-01T07:31:50;12.9;69.6
67893;DHT22;54688;52.376;16.744;2022-09-01T07:34:53;12.9;68.9
67893;DHT22;54688;52.376;16.744;2022-09-01T07:37:55;13;68.7
67893;DHT22;54688;52.376;16.744;2022-09-01T07:40:58;13.1;67.7
67893;DHT22;54688;52.376;16.744;2022-09-01T07:44:00;13.2;67.1
67893;DHT22;54688;52.376;16.744;2022-09-01T07:47:03;13.3;67.2
67893;DHT22;54688;52.376;16.744;2022-09-01T07:50:07;13.4;66.9
67893;DHT22;54688;52.376;16.744;2022-09-01T07:53:10;13.4;66.9
67893;DHT22;54688;52.376;16.744;2022-09-01T07:56:13;13.5;66.6
67893;DHT22;54688;52.376;16.744;2022-09-01T07:59:16;13.6;65.8
67893;DHT22;54688;52.376;16.744;2022-09-01T08:05:18;13.7;64.6
67893;DHT22;54688;52.376;16.744;2022-09-01T08:08:20;13.8;64
67893;DHT22;54688;52.376;16.744;2022-09-01T08:11:24;13.9;64.4
67893;DHT22;54688;52.376;16.744;2022-09-01T08:14:27;14;64.3
67893;DHT22;54688;52.376;16.744;2022-09-01T08:17:31;14.1;64.1
67893;DHT22;54688;52.376;16.744;2022-09-01T08:20:36;14.2;64.5
67893;DHT22;54688;52.376;16.744;2022-09-01T08:23:39;14.3;64.4
67893;DHT22;54688;52.376;16.744;2022-09-01T08:26:42;14.4;65.1
67893;DHT22;54688;52.376;16.744;2022-09-01T08:29:44;14.6;64.4
67893;DHT22;54688;52.376;16.744;2022-09-01T08:32:47;14.8;61.3
67893;DHT22;54688;52.376;16.744;2022-09-01T08:35:50;15.1;60.6
67893;DHT22;54688;52.376;16.744;2022-09-01T08:38:52;15.2;60.2
67893;DHT22;54688;52.376;16.744;2022-09-01T08:41:55;15.3;60.3
67893;DHT22;54688;52.376;16.744;2022-09-01T08:45:05;15.5;59
67893;DHT22;54688;52.376;16.744;2022-09-01T08:48:13;15.6;58.3
67893;DHT22;54688;52.376;16.744;2022-09-01T08:51:19;15.7;58.4
67893;DHT22;54688;52.376;16.744;2022-09-01T08:54:28;15.8;59.3
67893;DHT22;54688;52.376;16.744;2022-09-01T08:57:38;15.9;59.1
67893;DHT22;54688;52.376;16.744;2022-09-01T09:00:42;16.1;58.9
67893;DHT22;54688;52.376;16.744;2022-09-01T09:03:48;16.3;57.7
67893;DHT22;54688;52.376;16.744;2022-09-01T09:07:01;16.4;56.8
67893;DHT22;54688;52.376;16.744;2022-09-01T09:10:10;16.5;56
67893;DHT22;54688;52.376;16.744;2022-09-01T09:13:19;16.6;54.4
67893;DHT22;54688;52.376;16.744;2022-09-01T09:16:27;16.6;54
67893;DHT22;54688;52.376;16.744;2022-09-01T09:19:34;16.6;55.6
67893;DHT22;54688;52.376;16.744;2022-09-01T09:22:38;16.6;52.6
67893;DHT22;54688;52.376;16.744;2022-09-01T09:25:41;16.6;50.5
67893;DHT22;54688;52.376;16.744;2022-09-01T09:28:44;16.6;51.2
67893;DHT22;54688;52.376;16.744;2022-09-01T09:31:47;16.6;51.7
67893;DHT22;54688;52.376;16.744;2022-09-01T09:34:50;16.6;51.2
67893;DHT22;54688;52.376;16.744;2022-09-01T09:37:53;16.5;51.5
67893;DHT22;54688;52.376;16.744;2022-09-01T09:40:57;16.4;51.9
67893;DHT22;54688;52.376;16.744;2022-09-01T09:44:03;16.3;50.8
67893;DHT22;54688;52.376;16.744;2022-09-01T09:47:32;16.3;51.2
67893;DHT22;54688;52.376;16.744;2022-09-01T09:50:37;16.3;47.2
67893;DHT22;54688;52.376;16.744;2022-09-01T09:53:39;16.3;47.8
67893;DHT22;54688;52.376;16.744;2022-09-01T09:56:42;16.4;49.3
67893;DHT22;54688;52.376;16.744;2022-09-01T09:59:45;16.4;50.5
67893;DHT22;54688;52.376;16.744;2022-09-01T10:02:51;16.5;48.6
67893;DHT22;54688;52.376;16.744;2022-09-01T10:05:55;16.6;45.6
67893;DHT22;54688;52.376;16.744;2022-09-01T10:08:57;16.7;43.9
67893;DHT22;54688;52.376;16.744;2022-09-01T10:12:00;16.7;44.4
67893;DHT22;54688;52.376;16.744;2022-09-01T10:15:05;16.8;44.5
67893;DHT22;54688;52.376;16.744;2022-09-01T10:18:11;16.9;42.9
67893;DHT22;54688;52.376;16.744;2022-09-01T10:21:20;17;42.9
67893;DHT22;54688;52.376;16.744;2022-09-01T10:24:28;17.1;42.4
67893;DHT22;54688;52.376;16.744;2022-09-01T10:27:34;17.2;41.1
67893;DHT22;54688;52.376;16.744;2022-09-01T10:30:39;17.4;41.1
67893;DHT22;54688;52.376;16.744;2022-09-01T10:33:44;17.6;42.3
67893;DHT22;54688;52.376;16.744;2022-09-01T10:36:47;17.8;43.4
67893;DHT22;54688;52.376;16.744;2022-09-01T10:40:54;18;40.2
67893;DHT22;54688;52.376;16.744;2022-09-01T10:44:06;18.3;41.8
67893;DHT22;54688;52.376;16.744;2022-09-01T10:47:12;18.8;41.6
67893;DHT22;54688;52.376;16.744;2022-09-01T10:50:27;19.1;40.1
67893;DHT22;54688;52.376;16.744;2022-09-01T10:53:36;19.5;40.4
67893;DHT22;54688;52.376;16.744;2022-09-01T10:56:40;19.5;41.1
67893;DHT22;54688;52.376;16.744;2022-09-01T10:59:46;19.5;40.7
67893;DHT22;54688;52.376;16.744;2022-09-01T11:03:01;19.6;40
67893;DHT22;54688;52.376;16.744;2022-09-01T11:06:43;19.7;39.2
67893;DHT22;54688;52.376;16.744;2022-09-01T11:10:06;19.8;40.4
67893;DHT22;54688;52.376;16.744;2022-09-01T11:13:25;19.8;39.1
67893;DHT22;54688;52.376;16.744;2022-09-01T11:16:33;19.8;39.2
67893;DHT22;54688;52.376;16.744;2022-09-01T11:19:38;19.8;39.3
67893;DHT22;54688;52.376;16.744;2022-09-01T11:22:45;19.9;38.2
67893;DHT22;54688;52.376;16.744;2022-09-01T11:26:01;20;36.2
67893;DHT22;54688;52.376;16.744;2022-09-01T11:29:50;20.1;37.3
67893;DHT22;54688;52.376;16.744;2022-09-01T11:32:56;20.2;37.6
67893;DHT22;54688;52.376;16.744;2022-09-01T11:36:05;20.2;34.8
67893;DHT22;54688;52.376;16.744;2022-09-01T11:39:19;20.3;34.4
67893;DHT22;54688;52.376;16.744;2022-09-01T11:42:32;20.4;33.9
67893;DHT22;54688;52.376;16.744;2022-09-01T11:45:41;20.5;33.6
67893;DHT22;54688;52.376;16.744;2022-09-01T11:48:51;20.6;34.8
67893;DHT22;54688;52.376;16.744;2022-09-01T11:51:53;20.7;35.9
67893;DHT22;54688;52.376;16.744;2022-09-01T11:54:57;20.9;36.6
67893;DHT22;54688;52.376;16.744;2022-09-01T11:58:00;21.2;36.9
67893;DHT22;54688;52.376;16.744;2022-09-01T12:01:13;21.5;36.7
67893;DHT22;54688;52.376;16.744;2022-09-01T12:04:18;21.8;37.1
67893;DHT22;54688;52.376;16.744;2022-09-01T12:07:24;22;34.7
67893;DHT22;54688;52.376;16.744;2022-09-01T12:10:31;22.1;34.2
67893;DHT22;54688;52.376;16.744;2022-09-01T12:13:36;22.1;33.9
67893;DHT22;54688;52.376;16.744;2022-09-01T12:16:39;21.9;32.8
67893;DHT22;54688;52.376;16.744;2022-09-01T12:19:42;21.7;32.8
67893;DHT22;54688;52.376;16.744;2022-09-01T12:22:45;21.6;33.2
67893;DHT22;54688;52.376;16.744;2022-09-01T12:25:48;21.5;32.6
67893;DHT22;54688;52.376;16.744;2022-09-01T12:28:51;21.4;33.2
67893;DHT22;54688;52.376;16.744;2022-09-01T12:31:55;21.4;33.1
67893;DHT22;54688;52.376;16.744;2022-09-01T12:34:58;21.3;33.3
67893;DHT22;54688;52.376;16.744;2022-09-01T12:38:33;21.3;33.2
67893;DHT22;54688;52.376;16.744;2022-09-01T12:41:36;21.4;33.3
67893;DHT22;54688;52.376;16.744;2022-09-01T12:44:44;21.7;35.3
67893;DHT22;54688;52.376;16.744;2022-09-01T12:47:49;21.9;34.3
67893;DHT22;54688;52.376;16.744;2022-09-01T12:50:51;22.1;34.8
67893;DHT22;54688;52.376;16.744;2022-09-01T12:56:53;22.4;32.1
67893;DHT22;54688;52.376;16.744;2022-09-01T13:00:07;22.3;31.1
67893;DHT22;54688;52.376;16.744;2022-09-01T13:03:14;22.3;33.5
67893;DHT22;54688;52.376;16.744;2022-09-01T13:06:18;22.3;33.2
67893;DHT22;54688;52.376;16.744;2022-09-01T13:09:20;22.4;33
67893;DHT22;54688;52.376;16.744;2022-09-01T13:12:22;22.5;31.9
67893;DHT22;54688;52.376;16.744;2022-09-01T13:15:25;22.4;31.8
67893;DHT22;54688;52.376;16.744;2022-09-01T13:18:27;22.2;32.2
67893;DHT22;54688;52.376;16.744;2022-09-01T13:21:30;22.1;34.2
67893;DHT22;54688;52.376;16.744;2022-09-01T13:24:34;22.2;32.8
67893;DHT22;54688;52.376;16.744;2022-09-01T13:27:36;22;33.8
67893;DHT22;54688;52.376;16.744;2022-09-01T13:30:38;21.9;32.9
67893;DHT22;54688;52.376;16.744;2022-09-01T13:33:42;21.8;33.4
67893;DHT22;54688;52.376;16.744;2022-09-01T13:36:44;21.7;34
67893;DHT22;54688;52.376;16.744;2022-09-01T13:42:46;21.7;33.2
67893;DHT22;54688;52.376;16.744;2022-09-01T13:45:50;21.6;33.3
67893;DHT22;54688;52.376;16.744;2022-09-01T13:48:52;21.5;34
67893;DHT22;54688;52.376;16.744;2022-09-01T13:51:54;21.5;33.5
67893;DHT22;54688;52.376;16.744;2022-09-01T13:54:57;21.6;34.2
67893;DHT22;54688;52.376;16.744;2022-09-01T13:58:00;21.6;33.8
67893;DHT22;54688;52.376;16.744;2022-09-01T14:01:02;21.5;34.6
67893;DHT22;54688;52.376;16.744;2022-09-01T14:04:04;21.3;34.8
67893;DHT22;54688;52.376;16.744;2022-09-01T14:07:06;21.1;35.7
67893;DHT22;54688;52.376;16.744;2022-09-01T14:10:08;21;36.7
67893;DHT22;54688;52.376;16.744;2022-09-01T14:13:12;21;36.2
67893;DHT22;54688;52.376;16.744;2022-09-01T14:16:14;21;36.8
67893;DHT22;54688;52.376;16.744;2022-09-01T14:19:16;21.1;37.2
67893;DHT22;54688;52.376;16.744;2022-09-01T14:22:19;21.1;37.6
67893;DHT22;54688;52.376;16.744;2022-09-01T14:25:22;21.1;37.5
67893;DHT22;54688;52.376;16.744;2022-09-01T14:28:26;21;37.8
67893;DHT22;54688;52.376;16.744;2022-09-01T14:31:28;21;39.2
67893;DHT22;54688;52.376;16.744;2022-09-01T14:34:30;21;38.6
67893;DHT22;54688;52.376;16.744;2022-09-01T14:37:32;21.1;39.4
67893;DHT22;54688;52.376;16.744;2022-09-01T14:40:35;21.2;39.4
67893;DHT22;54688;52.376;16.744;2022-09-01T14:43:38;21.3;39.6
67893;DHT22;54688;52.376;16.744;2022-09-01T14:46:40;21.3;38.3
67893;DHT22;54688;52.376;16.744;2022-09-01T14:49:43;21.2;37.7
67893;DHT22;54688;52.376;16.744;2022-09-01T14:52:45;21.1;38.4
67893;DHT22;54688;52.376;16.744;2022-09-01T14:55:47;21.2;38
67893;DHT22;54688;52.376;16.744;2022-09-01T14:58:50;21.1;37.1
67893;DHT22;54688;52.376;16.744;2022-09-01T15:01:53;21;37
67893;DHT22;54688;52.376;16.744;2022-09-01T15:04:56;20.9;37.4
67893;DHT22;54688;52.376;16.744;2022-09-01T15:07:58;20.7;37
67893;DHT22;54688;52.376;16.744;2022-09-01T15:11:00;20.6;37.6
67893;DHT22;54688;52.376;16.744;2022-09-01T15:14:03;20.5;38.6
67893;DHT22;54688;52.376;16.744;2022-09-01T15:17:04;20.5;38.3
67893;DHT22;54688;52.376;16.744;2022-09-01T15:20:07;20.3;38.4
67893;DHT22;54688;52.376;16.744;2022-09-01T15:23:10;20.2;38.8
67893;DHT22;54688;52.376;16.744;2022-09-01T15:26:14;20.1;39.3
67893;DHT22;54688;52.376;16.744;2022-09-01T15:29:16;20.1;39.5
67893;DHT22;54688;52.376;16.744;2022-09-01T15:32:18;20;39.7
67893;DHT22;54688;52.376;16.744;2022-09-01T15:35:19;19.9;39.6
67893;DHT22;54688;52.376;16.744;2022-09-01T15:38:23;19.9;41.2
67893;DHT22;54688;52.376;16.744;2022-09-01T15:41:26;19.8;40
67893;DHT22;54688;52.376;16.744;2022-09-01T15:44:29;19.6;40.8
67893;DHT22;54688;52.376;16.744;2022-09-01T15:47:33;19.6;40.3
67893;DHT22;54688;52.376;16.744;2022-09-01T15:50:35;19.5;41.5
67893;DHT22;54688;52.376;16.744;2022-09-01T15:53:37;19.3;40
67893;DHT22;54688;52.376;16.744;2022-09-01T15:56:39;19.3;41.3
67893;DHT22;54688;52.376;16.744;2022-09-01T15:59:42;19.2;41
67893;DHT22;54688;52.376;16.744;2022-09-01T16:02:43;19.2;41.2
67893;DHT22;54688;52.376;16.744;2022-09-01T16:05:46;19.2;41.5
67893;DHT22;54688;52.376;16.744;2022-09-01T16:08:50;19.1;41.6
67893;DHT22;54688;52.376;16.744;2022-09-01T16:11:52;19.1;41.9
67893;DHT22;54688;52.376;16.744;2022-09-01T16:14:54;19.1;41.8
67893;DHT22;54688;52.376;16.744;2022-09-01T16:18:00;19;42.1
67893;DHT22;54688;52.376;16.744;2022-09-01T16:21:10;19;41.4
67893;DHT22;54688;52.376;16.744;2022-09-01T16:24:18;19;42.8
67893;DHT22;54688;52.376;16.744;2022-09-01T16:27:23;19;42.3
67893;DHT22;54688;52.376;16.744;2022-09-01T16:30:30;18.9;42.9
67893;DHT22;54688;52.376;16.744;2022-09-01T16:33:33;18.9;43.1
67893;DHT22;54688;52.376;16.744;2022-09-01T16:36:35;18.8;43.8
67893;DHT22;54688;52.376;16.744;2022-09-01T16:39:42;18.7;44.4
67893;DHT22;54688;52.376;16.744;2022-09-01T16:42:48;18.7;44.9
67893;DHT22;54688;52.376;16.744;2022-09-01T16:45:55;18.7;45.5
67893;DHT22;54688;52.376;16.744;2022-09-01T16:49:05;18.7;45.9
67893;DHT22;54688;52.376;16.744;2022-09-01T16:52:17;18.7;46.2
67893;DHT22;54688;52.376;16.744;2022-09-01T16:55:26;18.6;46
67893;DHT22;54688;52.376;16.744;2022-09-01T16:58:39;18.6;46.4
67893;DHT22;54688;52.376;16.744;2022-09-01T17:01:47;18.5;46.6
67893;DHT22;54688;52.376;16.744;2022-09-01T17:04:57;18.5;46.9
67893;DHT22;54688;52.376;16.744;2022-09-01T17:08:06;18.5;47
67893;DHT22;54688;52.376;16.744;2022-09-01T17:11:15;18.4;47.1
67893;DHT22;54688;52.376;16.744;2022-09-01T17:14:25;18.3;48.2
67893;DHT22;54688;52.376;16.744;2022-09-01T17:17:36;18.2;46.7
67893;DHT22;54688;52.376;16.744;2022-09-01T17:20:46;18.2;48.6
67893;DHT22;54688;52.376;16.744;2022-09-01T17:23:52;18.1;48
67893;DHT22;54688;52.376;16.744;2022-09-01T17:26:59;18.1;48.8
67893;DHT22;54688;52.376;16.744;2022-09-01T17:30:07;18;48.5
67893;DHT22;54688;52.376;16.744;2022-09-01T17:33:13;18;49.9
67893;DHT22;54688;52.376;16.744;2022-09-01T17:36:23;17.9;49.2
67893;DHT22;54688;52.376;16.744;2022-09-01T17:39:37;17.8;49.4
67893;DHT22;54688;52.376;16.744;2022-09-01T17:42:51;17.7;49.8
67893;DHT22;54688;52.376;16.744;2022-09-01T17:45:59;17.6;49.9
67893;DHT22;54688;52.376;16.744;2022-09-01T17:49:09;17.5;49.3
67893;DHT22;54688;52.376;16.744;2022-09-01T17:52:21;17.5;50.6
67893;DHT22;54688;52.376;16.744;2022-09-01T17:55:32;17.4;50.7
67893;DHT22;54688;52.376;16.744;2022-09-01T17:58:44;17.3;51.7
67893;DHT22;54688;52.376;16.744;2022-09-01T18:01:54;17.2;51.4
67893;DHT22;54688;52.376;16.744;2022-09-01T18:05:07;17.1;51.3
67893;DHT22;54688;52.376;16.744;2022-09-01T18:08:14;17;51.7
67893;DHT22;54688;52.376;16.744;2022-09-01T18:11:25;17;52
67893;DHT22;54688;52.376;16.744;2022-09-01T18:14:36;16.9;51.4
67893;DHT22;54688;52.376;16.744;2022-09-01T18:17:43;16.8;52.3
67893;DHT22;54688;52.376;16.744;2022-09-01T18:20:48;16.7;52.6
67893;DHT22;54688;52.376;16.744;2022-09-01T18:23:57;16.7;52.9
67893;DHT22;54688;52.376;16.744;2022-09-01T18:27:07;16.7;53.2
67893;DHT22;54688;52.376;16.744;2022-09-01T18:30:11;16.6;53.3
67893;DHT22;54688;52.376;16.744;2022-09-01T18:33:19;16.5;53.6
67893;DHT22;54688;52.376;16.744;2022-09-01T18:36:29;16.5;54.6
67893;DHT22;54688;52.376;16.744;2022-09-01T18:39:41;16.5;54
67893;DHT22;54688;52.376;16.744;2022-09-01T18:42:51;16.4;54.3
67893;DHT22;54688;52.376;16.744;2022-09-01T18:46:02;16.3;54.5
67893;DHT22;54688;52.376;16.744;2022-09-01T18:49:15;16.4;54.8
67893;DHT22;54688;52.376;16.744;2022-09-01T18:52:27;16.3;54.9
67893;DHT22;54688;52.376;16.744;2022-09-01T18:55:44;16.2;55.7
67893;DHT22;54688;52.376;16.744;2022-09-01T18:58:59;16.2;55.5
67893;DHT22;54688;52.376;16.744;2022-09-01T19:02:14;16.1;55.5
67893;DHT22;54688;52.376;16.744;2022-09-01T19:05:28;16.1;55.9
67893;DHT22;54688;52.376;16.744;2022-09-01T19:08:42;16;56.3
67893;DHT22;54688;52.376;16.744;2022-09-01T19:11:54;16;56.6
67893;DHT22;54688;52.376;16.744;2022-09-01T19:15:05;15.9;56.8
67893;DHT22;54688;52.376;16.744;2022-09-01T19:18:16;15.9;56.9
67893;DHT22;54688;52.376;16.744;2022-09-01T19:21:28;15.8;57.9
67893;DHT22;54688;52.376;16.744;2022-09-01T19:24:34;15.8;57.2
67893;DHT22;54688;52.376;16.744;2022-09-01T19:27:41;15.8;57.3
67893;DHT22;54688;52.376;16.744;2022-09-01T19:30:45;15.8;57.4
67893;DHT22;54688;52.376;16.744;2022-09-01T19:33:50;15.7;57.9
67893;DHT22;54688;52.376;16.744;2022-09-01T19:36:56;15.7;57.9
67893;DHT22;54688;52.376;16.744;2022-09-01T19:40:00;15.7;58.6
67893;DHT22;54688;52.376;16.744;2022-09-01T19:43:04;15.7;57.9
67893;DHT22;54688;52.376;16.744;2022-09-01T19:46:11;15.7;57.9
67893;DHT22;54688;52.376;16.744;2022-09-01T19:49:22;15.6;57.5
67893;DHT22;54688;52.376;16.744;2022-09-01T19:52:34;15.6;57.4
67893;DHT22;54688;52.376;16.744;2022-09-01T19:55:42;15.6;57.4
67893;DHT22;54688;52.376;16.744;2022-09-01T19:58:51;15.6;57
67893;DHT22;54688;52.376;16.744;2022-09-01T20:01:58;15.6;57.8
67893;DHT22;54688;52.376;16.744;2022-09-01T20:05:06;15.6;57.8
67893;DHT22;54688;52.376;16.744;2022-09-01T20:08:14;15.5;57.6
67893;DHT22;54688;52.376;16.744;2022-09-01T20:11:20;15.4;57.5
67893;DHT22;54688;52.376;16.744;2022-09-01T20:14:37;15.4;57.4
67893;DHT22;54688;52.376;16.744;2022-09-01T20:17:51;15.4;57.5
67893;DHT22;54688;52.376;16.744;2022-09-01T20:20:59;15.3;57
67893;DHT22;54688;52.376;16.744;2022-09-01T20:24:07;15.2;56.9
67893;DHT22;54688;52.376;16.744;2022-09-01T20:27:19;15.1;56.7